createdAt,value
2018-11-27T00:01:41.221Z,50.97
2018-11-27T00:04:09.385Z,47.47
2018-11-27T00:06:37.973Z,53.97
2018-11-27T00:09:07.345Z,53.63
2018-11-27T00:11:35.540Z,56.40
2018-11-27T00:14:03.840Z,52.10
2018-11-27T00:16:31.944Z,52.77
2018-11-27T00:19:00.063Z,60.63
2018-11-27T00:21:28.255Z,54.50
2018-11-27T00:23:56.355Z,61.87
2018-11-27T00:26:24.468Z,53.30
2018-11-27T00:28:52.634Z,58.83
2018-11-27T00:31:20.744Z,58.00
2018-11-27T00:33:49.203Z,52.50
2018-11-27T00:36:17.305Z,58.30
2018-11-27T00:38:45.415Z,53.27
2018-11-27T00:41:13.531Z,57.03
2018-11-27T00:43:41.695Z,53.20
2018-11-27T00:46:09.786Z,54.90
2018-11-27T00:48:37.918Z,53.40
2018-11-27T00:51:06.166Z,57.03
2018-11-27T00:53:34.259Z,57.93
2018-11-27T00:56:02.523Z,54.47
2018-11-27T00:58:30.652Z,57.30
2018-11-27T01:00:58.768Z,53.20
2018-11-27T01:03:26.891Z,51.63
2018-11-27T01:05:54.988Z,58.90
2018-11-27T01:08:23.185Z,56.83
2018-11-27T01:10:51.275Z,52.17
2018-11-27T01:13:19.409Z,55.40
2018-11-27T01:15:47.472Z,54.57
2018-11-27T01:18:15.571Z,55.97
2018-11-27T01:20:43.690Z,57.13
2018-11-27T01:23:11.864Z,51.00
2018-11-27T01:25:39.934Z,55.00
2018-11-27T01:28:08.047Z,53.20
2018-11-27T01:30:36.186Z,56.53
2018-11-27T01:33:04.290Z,55.43
2018-11-27T01:35:32.715Z,47.67
2018-11-27T01:38:00.911Z,53.33
2018-11-27T01:40:29.018Z,53.47
2018-11-27T01:42:57.128Z,52.57
2018-11-27T01:45:25.299Z,54.33
2018-11-27T01:47:53.561Z,56.37
2018-11-27T01:50:21.676Z,56.27
2018-11-27T01:52:49.810Z,55.90
2018-11-27T01:55:20.131Z,52.13
2018-11-27T01:57:48.254Z,56.47
2018-11-27T02:00:17.414Z,51.13
2018-11-27T02:02:45.548Z,57.00
2018-11-27T02:05:13.660Z,53.30
2018-11-27T02:07:41.894Z,49.03
2018-11-27T02:10:11.436Z,53.10
2018-11-27T02:12:40.972Z,61.77
2018-11-27T02:15:13.862Z,50.23
2018-11-27T02:17:42.041Z,55.30
2018-11-27T02:20:10.955Z,56.80
2018-11-27T02:22:39.502Z,55.20
2018-11-27T02:25:17.748Z,53.87
2018-11-27T02:27:45.906Z,54.10
2018-11-27T02:30:16.097Z,50.63
2018-11-27T02:32:44.327Z,57.20
2018-11-27T02:35:14.589Z,53.70
2018-11-27T02:37:42.771Z,56.67
2018-11-27T02:40:12.964Z,59.93
2018-11-27T02:42:41.337Z,57.57
2018-11-27T02:45:10.788Z,56.20
2018-11-27T02:47:39.216Z,60.37
2018-11-27T02:50:08.964Z,55.60
2018-11-27T02:52:37.196Z,55.40
2018-11-27T02:55:10.232Z,57.37
2018-11-27T02:57:38.409Z,55.07
2018-11-27T03:00:08.892Z,53.17
2018-11-27T03:02:37.063Z,54.10
2018-11-27T03:05:09.759Z,55.60
2018-11-27T03:07:37.923Z,56.53
2018-11-27T03:10:09.093Z,58.07
2018-11-27T03:12:37.598Z,53.60
2018-11-27T03:15:09.375Z,54.67
2018-11-27T03:17:37.508Z,57.27
2018-11-27T03:20:07.731Z,56.43
2018-11-27T03:22:35.854Z,53.67
2018-11-27T03:25:05.073Z,50.73
2018-11-27T03:27:33.203Z,56.43
2018-11-27T03:30:01.423Z,54.77
2018-11-27T03:32:29.521Z,52.70
2018-11-27T03:34:57.639Z,55.93
2018-11-27T03:37:25.747Z,55.80
2018-11-27T03:39:53.880Z,54.53
2018-11-27T03:42:21.971Z,56.87
2018-11-27T03:44:50.104Z,55.37
2018-11-27T03:47:18.217Z,51.93
2018-11-27T03:49:46.363Z,55.33
2018-11-27T03:52:14.471Z,53.30
2018-11-27T03:54:42.609Z,59.97
2018-11-27T03:57:10.759Z,57.80
2018-11-27T03:59:39.149Z,59.03
2018-11-27T04:02:07.274Z,56.10
2018-11-27T04:04:35.428Z,57.07
2018-11-27T04:07:04.084Z,52.30
2018-11-27T04:09:32.223Z,54.93
2018-11-27T04:12:00.523Z,61.70
2018-11-27T04:14:28.651Z,55.40
2018-11-27T04:16:56.904Z,52.93
2018-11-27T04:19:25.037Z,58.40
2018-11-27T04:21:53.194Z,57.10
2018-11-27T04:24:21.486Z,57.07
2018-11-27T04:26:49.625Z,51.83
2018-11-27T04:29:17.875Z,54.40
2018-11-27T04:31:45.991Z,52.47
2018-11-27T04:34:14.121Z,57.83
2018-11-27T04:36:42.344Z,54.07
2018-11-27T04:39:10.520Z,51.87
2018-11-27T04:41:38.667Z,51.70
2018-11-27T04:44:06.737Z,56.67
2018-11-27T04:46:34.851Z,53.60
2018-11-27T04:49:02.914Z,57.87
2018-11-27T04:51:31.049Z,57.97
2018-11-27T04:53:59.186Z,56.93
2018-11-27T04:56:27.341Z,54.40
2018-11-27T04:58:55.428Z,57.40
2018-11-27T05:01:23.579Z,53.87
2018-11-27T05:03:51.750Z,67.43
2018-11-27T05:06:19.929Z,56.47
2018-11-27T05:08:48.501Z,60.97
2018-11-27T05:11:16.659Z,56.10
2018-11-27T05:13:44.799Z,59.73
2018-11-27T05:16:12.979Z,60.53
2018-11-27T05:18:41.389Z,58.80
2018-11-27T05:21:09.498Z,51.47
2018-11-27T05:23:37.595Z,56.07
2018-11-27T05:26:06.147Z,50.60
2018-11-27T05:28:34.302Z,55.00
2018-11-27T05:31:02.391Z,54.20
2018-11-27T05:33:30.697Z,52.43
2018-11-27T05:35:58.785Z,57.00
2018-11-27T05:38:26.996Z,52.07
2018-11-27T05:40:55.119Z,54.10
2018-11-27T05:43:23.324Z,51.83
2018-11-27T05:45:51.448Z,54.33
2018-11-27T05:48:19.640Z,58.30
2018-11-27T05:50:47.875Z,54.70
2018-11-27T05:53:16.030Z,58.37
2018-11-27T05:55:44.195Z,49.83
2018-11-27T05:58:12.372Z,57.70
2018-11-27T06:00:40.763Z,55.80
2018-11-27T06:03:09.779Z,55.40
2018-11-27T06:05:37.921Z,57.97
2018-11-27T06:08:06.471Z,58.27
2018-11-27T06:10:34.836Z,57.70
2018-11-27T06:13:03.125Z,53.60
2018-11-27T06:15:31.262Z,52.60
2018-11-27T06:18:00.688Z,53.57
2018-11-27T06:20:29.073Z,53.33
2018-11-27T06:22:57.246Z,54.50
2018-11-27T06:25:26.548Z,56.10
2018-11-27T06:28:00.744Z,56.07
2018-11-27T06:30:29.768Z,57.73
2018-11-27T06:32:57.921Z,57.93
2018-11-27T06:35:45.372Z,56.00
2018-11-27T06:38:13.497Z,54.70
2018-11-27T06:40:42.163Z,54.07
2018-11-27T06:43:11.189Z,56.17
2018-11-27T06:45:40.578Z,48.50
2018-11-27T06:48:08.921Z,59.77
2018-11-27T06:50:37.087Z,54.17
2018-11-27T06:53:06.257Z,52.30
2018-11-27T06:55:34.552Z,56.27
2018-11-27T06:58:03.015Z,51.03
2018-11-27T07:00:31.108Z,54.27
2018-11-27T07:02:59.438Z,51.60
2018-11-27T07:05:27.573Z,48.13
2018-11-27T07:07:55.773Z,51.37
2018-11-27T07:10:27.446Z,58.67
2018-11-27T07:12:57.427Z,54.23
2018-11-27T07:15:25.528Z,51.67
2018-11-27T07:17:53.740Z,51.10
2018-11-27T07:20:21.886Z,54.13
2018-11-27T07:22:50.032Z,53.70
2018-11-27T07:25:18.118Z,52.57
2018-11-27T07:27:47.626Z,52.43
2018-11-27T07:30:17.891Z,49.73
2018-11-27T07:32:46.170Z,51.00
2018-11-27T07:35:15.073Z,52.70
2018-11-27T07:37:43.439Z,53.63
2018-11-27T07:40:14.705Z,46.10
2018-11-27T07:42:42.839Z,53.20
2018-11-27T07:45:16.417Z,47.67
2018-11-27T07:47:44.634Z,46.33
2018-11-27T07:50:13.509Z,50.63
2018-11-27T07:52:41.836Z,49.60
2018-11-27T07:55:11.944Z,48.37
2018-11-27T07:57:40.153Z,48.93
2018-11-27T08:00:11.595Z,46.63
2018-11-27T08:02:39.940Z,51.33
2018-11-27T08:05:10.341Z,52.50
2018-11-27T08:07:39.193Z,44.73
2018-11-27T08:10:14.693Z,48.00
2018-11-27T08:12:42.911Z,47.83
2018-11-27T08:15:13.867Z,49.60
2018-11-27T08:17:42.247Z,49.03
2018-11-27T08:20:12.152Z,47.63
2018-11-27T08:22:40.280Z,45.87
2018-11-27T08:25:10.103Z,44.60
2018-11-27T08:27:38.287Z,44.87
2018-11-27T08:30:11.824Z,41.50
2018-11-27T08:32:39.954Z,45.40
2018-11-27T08:35:11.585Z,41.77
2018-11-27T08:37:40.424Z,41.73
2018-11-27T08:40:09.982Z,41.40
2018-11-27T08:42:38.205Z,44.43
2018-11-27T08:45:10.202Z,44.77
2018-11-27T08:47:38.432Z,41.57
2018-11-27T08:50:14.965Z,39.43
2018-11-27T08:52:46.828Z,41.87
2018-11-27T08:55:14.052Z,43.80
2018-11-27T08:57:43.620Z,44.27
2018-11-27T09:00:13.191Z,42.57
2018-11-27T09:02:41.509Z,46.17
2018-11-27T09:05:10.516Z,47.97
2018-11-27T09:07:38.651Z,41.43
2018-11-27T09:10:10.399Z,45.20
2018-11-27T09:12:38.581Z,44.37
2018-11-27T09:15:08.353Z,41.63
2018-11-27T09:17:36.491Z,42.60
2018-11-27T09:20:07.487Z,45.03
2018-11-27T09:22:35.666Z,43.67
2018-11-27T09:25:05.457Z,38.17
2018-11-27T09:27:33.604Z,35.97
2018-11-27T09:30:01.853Z,37.97
2018-11-27T09:32:30.084Z,36.03
2018-11-27T09:34:58.216Z,34.97
2018-11-27T09:37:26.420Z,30.90
2018-11-27T09:39:54.583Z,35.90
2018-11-27T09:42:22.695Z,41.33
2018-11-27T09:44:50.820Z,39.73
2018-11-27T09:47:18.932Z,36.30
2018-11-27T09:49:47.035Z,38.63
2018-11-27T09:52:15.482Z,30.93
2018-11-27T09:54:43.599Z,34.33
2018-11-27T09:57:11.674Z,35.67
2018-11-27T09:59:39.762Z,36.50
2018-11-27T10:02:07.839Z,41.97
2018-11-27T10:04:35.924Z,37.93
2018-11-27T10:07:04.806Z,35.27
2018-11-27T10:09:32.322Z,28.03
2018-11-27T10:12:00.801Z,27.33
2018-11-27T10:14:28.964Z,30.70
2018-11-27T10:16:57.120Z,30.97
2018-11-27T10:19:27.027Z,27.33
2018-11-27T10:21:53.560Z,25.57
2018-11-27T10:24:21.775Z,27.77
2018-11-27T10:26:49.883Z,25.43
2018-11-27T10:29:18.785Z,25.97
2018-11-27T10:31:46.925Z,26.63
2018-11-27T10:34:15.024Z,27.40
2018-11-27T10:36:43.593Z,25.50
2018-11-27T10:39:11.294Z,30.10
2018-11-27T10:41:39.414Z,24.87
2018-11-27T10:44:07.520Z,22.97
2018-11-27T10:46:35.623Z,23.60
2018-11-27T10:49:03.760Z,23.33
2018-11-27T10:51:38.350Z,23.73
2018-11-27T10:54:06.450Z,20.87
2018-11-27T10:56:34.534Z,22.27
2018-11-27T10:59:02.705Z,23.83
2018-11-27T11:01:30.782Z,24.33
2018-11-27T11:03:58.911Z,28.70
2018-11-27T11:06:27.018Z,22.30
2018-11-27T11:08:55.208Z,21.10
2018-11-27T11:11:23.314Z,21.00
2018-11-27T11:13:51.444Z,22.87
2018-11-27T11:16:19.594Z,26.07
2018-11-27T11:18:47.690Z,23.10
2018-11-27T11:21:15.850Z,22.00
2018-11-27T11:23:43.972Z,22.00
2018-11-27T11:26:12.100Z,24.50
2018-11-27T11:28:40.228Z,23.37
2018-11-27T11:31:08.372Z,24.60
2018-11-27T11:33:36.592Z,23.27
2018-11-27T11:36:05.159Z,23.73
2018-11-27T11:38:33.303Z,24.60
2018-11-27T11:41:01.494Z,24.73
2018-11-27T11:43:29.599Z,23.57
2018-11-27T11:45:57.870Z,23.17
2018-11-27T11:48:26.182Z,24.13
2018-11-27T11:50:54.308Z,23.17
2018-11-27T11:53:22.451Z,22.57
2018-11-27T11:55:50.576Z,22.00
2018-11-27T11:58:18.710Z,24.00
2018-11-27T12:00:47.740Z,20.33
2018-11-27T12:03:15.840Z,23.67
2018-11-27T12:05:43.967Z,28.77
2018-11-27T12:08:12.094Z,26.13
2018-11-27T12:10:40.261Z,21.67
2018-11-27T12:13:09.564Z,22.57
2018-11-27T12:15:37.727Z,19.77
2018-11-27T12:18:06.750Z,22.03
2018-11-27T12:20:34.921Z,20.30
2018-11-27T12:23:03.760Z,18.20
2018-11-27T12:25:31.879Z,22.17
2018-11-27T12:28:00.066Z,21.43
2018-11-27T12:30:28.226Z,20.83
2018-11-27T12:32:56.375Z,20.47
2018-11-27T12:35:24.513Z,17.83
2018-11-27T12:37:52.703Z,15.63
2018-11-27T12:40:24.580Z,16.00
2018-11-27T12:42:52.779Z,19.07
2018-11-27T12:45:22.173Z,16.93
2018-11-27T12:47:50.617Z,14.03
2018-11-27T12:50:21.055Z,17.57
2018-11-27T12:52:49.435Z,16.57
2018-11-27T12:55:20.955Z,17.97
2018-11-27T12:57:48.109Z,19.43
2018-11-27T13:00:19.254Z,19.20
2018-11-27T13:02:47.694Z,17.00
2018-11-27T13:05:17.548Z,20.73
2018-11-27T13:07:45.669Z,21.37
2018-11-27T13:10:14.691Z,17.57
2018-11-27T13:12:43.793Z,20.70
2018-11-27T13:15:16.863Z,23.03
2018-11-27T13:17:45.491Z,20.67
2018-11-27T13:20:14.960Z,20.57
2018-11-27T13:22:43.565Z,21.53
2018-11-27T13:25:15.009Z,18.50
2018-11-27T13:27:43.292Z,19.90
2018-11-27T13:30:19.022Z,20.93
2018-11-27T13:32:48.970Z,20.53
2018-11-27T13:35:17.127Z,19.40
2018-11-27T13:37:45.357Z,22.27
2018-11-27T13:40:13.884Z,19.50
2018-11-27T13:42:42.077Z,21.17
2018-11-27T13:45:13.397Z,20.07
2018-11-27T13:47:42.128Z,22.90
2018-11-27T13:50:13.187Z,21.63
2018-11-27T13:52:41.358Z,21.53
2018-11-27T13:55:14.878Z,25.50
2018-11-27T13:57:43.195Z,25.57
2018-11-27T14:00:12.494Z,23.60
2018-11-27T14:02:42.087Z,23.70
2018-11-27T14:05:12.362Z,25.43
2018-11-27T14:07:40.479Z,20.40
2018-11-27T14:10:10.030Z,25.03
2018-11-27T14:12:38.214Z,25.13
2018-11-27T14:15:12.411Z,20.13
2018-11-27T14:17:40.876Z,20.37
2018-11-27T14:20:09.098Z,23.53
2018-11-27T14:22:37.756Z,23.53
2018-11-27T14:25:07.973Z,26.20
2018-11-27T14:27:37.270Z,26.77
2018-11-27T14:30:15.184Z,24.30
2018-11-27T14:32:43.688Z,25.73
2018-11-27T14:35:12.768Z,22.27
2018-11-27T14:37:41.083Z,25.80
2018-11-27T14:40:14.631Z,23.73
2018-11-27T14:45:20.461Z,24.03
2018-11-27T14:48:03.347Z,22.53
2018-11-27T14:50:31.656Z,24.10
2018-11-27T14:53:00.762Z,21.87
2018-11-27T14:55:30.606Z,27.17
2018-11-27T14:57:58.711Z,20.40
2018-11-27T15:00:26.939Z,22.70
2018-11-27T15:02:55.311Z,22.67
2018-11-27T15:05:30.758Z,21.00
2018-11-27T15:07:58.961Z,22.57
2018-11-27T15:10:27.225Z,22.87
2018-11-27T15:12:55.410Z,22.20
2018-11-27T15:15:23.663Z,22.77
2018-11-27T15:17:51.873Z,24.33
2018-11-27T15:20:21.128Z,21.20
2018-11-27T15:22:49.332Z,22.53
2018-11-27T15:25:17.537Z,26.33
2018-11-27T15:27:46.057Z,20.70
2018-11-27T15:30:23.046Z,25.47
2018-11-27T15:32:52.438Z,21.83
2018-11-27T15:35:20.711Z,22.13
2018-11-27T15:37:48.881Z,19.87
2018-11-27T15:40:18.365Z,23.60
2018-11-27T15:42:46.457Z,21.47
2018-11-27T15:45:22.546Z,23.33
2018-11-27T15:47:50.806Z,24.93
2018-11-27T15:50:19.083Z,24.37
2018-11-27T15:52:47.438Z,22.50
2018-11-27T15:55:17.726Z,21.20
2018-11-27T15:57:46.776Z,23.07
2018-11-27T16:00:16.055Z,22.47
2018-11-27T16:02:44.567Z,24.27
2018-11-27T16:05:13.313Z,22.17
2018-11-27T16:07:41.549Z,22.57
2018-11-27T16:10:11.819Z,23.63
2018-11-27T16:12:40.018Z,25.03
2018-11-27T16:15:13.388Z,25.60
2018-11-27T16:17:41.687Z,23.40
2018-11-27T16:20:11.336Z,25.73
2018-11-27T16:22:40.352Z,23.97
2018-11-27T16:25:11.293Z,27.30
2018-11-27T16:27:39.615Z,25.40
2018-11-27T16:30:13.215Z,23.73
2018-11-27T16:32:41.393Z,24.43
2018-11-27T16:35:10.770Z,27.93
2018-11-27T16:37:39.589Z,25.97
2018-11-27T16:40:19.530Z,25.83
2018-11-27T16:42:47.871Z,25.47
2018-11-27T16:45:19.110Z,23.13
2018-11-27T16:47:47.290Z,26.87
2018-11-27T16:50:16.178Z,24.33
2018-11-27T16:52:44.756Z,24.33
2018-11-27T16:55:15.103Z,24.83
2018-11-27T16:57:49.937Z,23.33
2018-11-27T17:00:25.750Z,26.10
2018-11-27T17:02:55.304Z,32.47
2018-11-27T17:05:23.850Z,27.03
2018-11-27T17:07:52.059Z,25.53
2018-11-27T17:10:20.801Z,23.80
2018-11-27T17:12:52.474Z,22.57
2018-11-27T17:15:21.771Z,26.10
2018-11-27T17:17:50.286Z,24.73
2018-11-27T17:20:23.255Z,24.03
2018-11-27T17:22:52.022Z,23.83
2018-11-27T17:25:20.184Z,24.13
2018-11-27T17:27:48.975Z,27.60
2018-11-27T17:30:21.026Z,23.63
2018-11-27T17:32:49.420Z,28.37
2018-11-27T17:35:17.833Z,25.53
2018-11-27T17:37:45.959Z,24.83
2018-11-27T17:40:14.277Z,25.67
2018-11-27T17:42:42.706Z,25.17
2018-11-27T17:45:12.330Z,23.77
2018-11-27T17:47:40.791Z,29.60
2018-11-27T17:50:11.596Z,25.80
2018-11-27T17:52:40.430Z,27.73
2018-11-27T17:55:09.806Z,25.93
2018-11-27T17:57:38.176Z,24.70
2018-11-27T18:00:15.957Z,27.13
2018-11-27T18:02:48.786Z,23.53
2018-11-27T18:05:16.987Z,23.50
2018-11-27T18:07:45.347Z,31.07
2018-11-27T18:10:14.345Z,32.40
2018-11-27T18:12:43.308Z,28.53
2018-11-27T18:15:14.814Z,29.10
2018-11-27T18:17:44.942Z,28.40
2018-11-27T18:20:13.126Z,24.33
2018-11-27T18:22:41.486Z,29.27
2018-11-27T18:25:14.740Z,24.77
2018-11-27T18:27:44.780Z,24.30
2018-11-27T18:30:14.891Z,25.47
2018-11-27T18:32:43.145Z,23.93
2018-11-27T18:35:13.411Z,24.73
2018-11-27T18:37:41.682Z,23.10
2018-11-27T18:40:11.850Z,24.73
2018-11-27T18:42:40.398Z,27.57
2018-11-27T18:45:39.812Z,22.50
2018-11-27T18:48:08.039Z,25.03
2018-11-27T18:50:36.200Z,21.83
2018-11-27T18:53:04.592Z,26.47
2018-11-27T18:55:32.889Z,22.90
2018-11-27T18:58:01.134Z,20.37
2018-11-27T19:00:30.728Z,18.67
2018-11-27T19:02:59.012Z,25.00
2018-11-27T19:05:27.186Z,22.47
2018-11-27T19:07:55.441Z,24.80
2018-11-27T19:10:26.740Z,22.50
2018-11-27T19:12:55.334Z,24.13
2018-11-27T19:15:40.452Z,26.40
2018-11-27T19:18:26.836Z,25.63
2018-11-27T19:20:55.062Z,23.87
2018-11-27T19:23:24.506Z,26.47
2018-11-27T19:25:53.035Z,26.53
2018-11-27T19:28:21.220Z,29.37
2018-11-27T19:30:49.942Z,27.60
2018-11-27T19:33:18.077Z,26.97
2018-11-27T19:35:46.357Z,25.63
2018-11-27T19:38:15.752Z,25.43
2018-11-27T19:40:43.925Z,27.93
2018-11-27T19:43:12.047Z,25.53
2018-11-27T19:45:40.338Z,27.83
2018-11-27T19:48:09.615Z,25.90
2018-11-27T19:50:37.902Z,29.20
2018-11-27T19:53:11.987Z,27.97
2018-11-27T19:55:36.908Z,30.20
2018-11-27T19:58:06.218Z,28.83
2018-11-27T20:00:34.986Z,28.70
2018-11-27T20:03:03.521Z,32.03
2018-11-27T20:05:31.688Z,31.77
2018-11-27T20:07:59.904Z,30.30
2018-11-27T20:10:28.573Z,34.13
2018-11-27T20:12:56.729Z,29.07
2018-11-27T20:15:25.830Z,30.63
2018-11-27T20:17:54.976Z,34.17
2018-11-27T20:20:24.620Z,34.20
2018-11-27T20:22:53.741Z,37.17
2018-11-27T20:25:22.441Z,29.50
2018-11-27T20:27:50.805Z,28.10
2018-11-27T20:30:21.769Z,27.43
2018-11-27T20:32:53.112Z,29.23
2018-11-27T20:35:21.367Z,30.17
2018-11-27T20:37:50.747Z,29.97
2018-11-27T20:40:19.494Z,32.17
2018-11-27T20:42:48.028Z,28.70
2018-11-27T20:45:19.563Z,33.63
2018-11-27T20:47:46.968Z,35.13
2018-11-27T20:50:16.401Z,31.47
2018-11-27T20:52:44.648Z,29.67
2018-11-27T20:55:13.200Z,32.73
2018-11-27T20:57:43.235Z,34.57
2018-11-27T21:00:17.033Z,32.07
2018-11-27T21:02:45.505Z,27.77
2018-11-27T21:05:13.754Z,39.87
2018-11-27T21:07:42.348Z,33.53
2018-11-27T21:10:11.771Z,33.33
2018-11-27T21:12:40.688Z,34.37
2018-11-27T21:15:11.181Z,27.60
2018-11-27T21:17:39.322Z,37.07
2018-11-27T21:20:08.899Z,31.47
2018-11-27T21:22:37.470Z,32.80
2018-11-27T21:25:14.865Z,29.13
2018-11-27T21:27:45.183Z,32.80
2018-11-27T21:30:14.600Z,32.93
2018-11-27T21:32:43.155Z,32.70
2018-11-27T21:35:12.366Z,34.97
2018-11-27T21:37:40.646Z,36.33
2018-11-27T21:40:10.955Z,33.23
2018-11-27T21:42:39.367Z,34.93
2018-11-27T21:45:16.441Z,28.87
2018-11-27T21:47:45.903Z,34.47
2018-11-27T21:50:16.307Z,35.97
2018-11-27T21:52:44.574Z,32.20
2018-11-27T21:55:13.682Z,40.17
2018-11-27T21:57:42.186Z,34.20
2018-11-27T22:00:18.283Z,35.77
2018-11-27T22:02:46.451Z,34.43
2018-11-27T22:05:15.080Z,32.57
2018-11-27T22:07:43.779Z,35.40
2018-11-27T22:10:14.217Z,30.50
2018-11-27T22:12:43.716Z,33.50
2018-11-27T22:15:15.496Z,37.90
2018-11-27T22:17:43.784Z,28.10
2018-11-27T22:20:12.010Z,32.67
2018-11-27T22:22:40.221Z,40.20
2018-11-27T22:25:13.537Z,34.07
2018-11-27T22:27:41.954Z,35.57
2018-11-27T22:30:12.221Z,34.40
2018-11-27T22:32:42.459Z,36.70
2018-11-27T22:35:11.150Z,35.90
2018-11-27T22:37:39.332Z,35.13
2018-11-27T22:40:09.282Z,35.80
2018-11-27T22:42:37.551Z,36.33
2018-11-27T22:45:08.634Z,32.97
2018-11-27T22:47:37.143Z,36.30
2018-11-27T22:50:10.286Z,35.23
2018-11-27T22:52:38.520Z,38.60
2018-11-27T22:55:07.158Z,39.50
2018-11-27T22:57:35.402Z,33.00
2018-11-27T23:00:07.253Z,34.60
2018-11-27T23:02:35.364Z,32.97
2018-11-27T23:05:04.201Z,33.53
2018-11-27T23:07:32.314Z,36.17
2018-11-27T23:10:00.462Z,38.90
2018-11-27T23:12:28.643Z,33.33
2018-11-27T23:14:56.775Z,34.30
2018-11-27T23:17:24.893Z,32.77
2018-11-27T23:19:53.020Z,33.77
2018-11-27T23:22:21.406Z,28.47
2018-11-27T23:24:49.603Z,33.30
2018-11-27T23:27:17.931Z,34.63
2018-11-27T23:29:46.539Z,31.27
2018-11-27T23:32:14.712Z,33.83
2018-11-27T23:34:42.819Z,35.97
2018-11-27T23:37:10.955Z,34.87
2018-11-27T23:39:39.121Z,33.13
2018-11-27T23:42:07.286Z,28.23
2018-11-27T23:44:35.373Z,32.73
2018-11-27T23:47:04.162Z,33.63
2018-11-27T23:49:32.275Z,38.33
2018-11-27T23:52:00.397Z,39.33
2018-11-27T23:54:28.468Z,29.97
2018-11-27T23:56:56.587Z,36.43
2018-11-27T23:59:24.775Z,34.77
